Time;durP1;ratioP1;P1;durP2;ratioP2;P2;SDS_P1;SDS_P2;PMS_P1;PMS_P2;Temp;Humidity;BMP_temperature;BMP_pressure;BME280_temperature;BME280_humidity;BME280_pressure;Samples;Min_cycle;Max_cycle;Signal;HPM_P1;HPM_P2
2023/07/19 00:00:56;;;;;;;4.90;3.45;;;;;;;;;;6212726;23;20463;-61
2023/07/19 00:03:22;;;;;;;6.00;3.20;;;;;;;;;;6212264;23;20020;-61
2023/07/19 00:05:48;;;;;;;5.07;3.40;;;;;;;;;;6212143;23;20016;-61
2023/07/19 00:08:15;;;;;;;6.00;3.58;;;;;;;;;;6212811;23;20020;-61
2023/07/19 00:10:41;;;;;;;6.70;3.47;;;;;;;;;;6212141;23;20013;-61
2023/07/19 00:13:07;;;;;;;4.40;3.70;;;;;;;;;;6212268;23;20021;-61
2023/07/19 00:15:33;;;;;;;4.50;3.53;;;;;;;;;;6185523;23;20016;-61
2023/07/19 00:18:00;;;;;;;5.75;3.65;;;;;;;;;;6212558;23;20009;-61
2023/07/19 00:20:26;;;;;;;4.72;3.30;;;;;;;;;;6212714;23;20012;-61
2023/07/19 00:22:52;;;;;;;5.93;3.70;;;;;;;;;;6212059;23;20066;-61
2023/07/19 00:25:18;;;;;;;6.82;4.72;;;;;;;;;;6212568;23;20012;-61
2023/07/19 00:27:45;;;;;;;4.80;3.92;;;;;;;;;;6212608;23;20023;-61
2023/07/19 00:30:11;;;;;;;5.97;3.50;;;;;;;;;;6212250;23;20020;-61
2023/07/19 00:32:37;;;;;;;7.30;3.35;;;;;;;;;;6212299;23;20063;-61
2023/07/19 00:35:03;;;;;;;5.88;3.75;;;;;;;;;;6212396;23;20344;-61
2023/07/19 00:37:29;;;;;;;9.23;3.90;;;;;;;;;;6211957;23;20016;-61
2023/07/19 00:39:55;;;;;;;6.45;4.15;;;;;;;;;;6212594;23;20040;-61
2023/07/19 00:42:21;;;;;;;4.85;3.20;;;;;;;;;;6212411;23;20017;-61
2023/07/19 00:44:47;;;;;;;4.40;3.60;;;;;;;;;;6212159;23;20019;-61
2023/07/19 00:47:13;;;;;;;7.00;4.10;;;;;;;;;;6211086;23;20021;-61
2023/07/19 00:49:40;;;;;;;10.25;4.55;;;;;;;;;;6212524;23;20876;-61
2023/07/19 00:52:07;;;;;;;8.98;4.30;;;;;;;;;;6211898;23;20429;-61
2023/07/19 00:54:33;;;;;;;6.80;3.90;;;;;;;;;;6212400;23;20064;-61
2023/07/19 00:56:59;;;;;;;6.40;3.83;;;;;;;;;;6212406;23;20004;-61
2023/07/19 00:59:26;;;;;;;7.97;4.15;;;;;;;;;;6211961;23;20371;-61
2023/07/19 01:01:52;;;;;;;7.20;3.88;;;;;;;;;;6212250;23;20012;-61
2023/07/19 01:04:18;;;;;;;6.82;3.78;;;;;;;;;;6212441;23;20139;-61
2023/07/19 01:06:44;;;;;;;5.80;3.88;;;;;;;;;;6211546;23;20019;-61
2023/07/19 01:09:14;;;;;;;5.72;3.78;;;;;;;;;;6212242;23;20023;-61
2023/07/19 01:11:41;;;;;;;5.68;3.50;;;;;;;;;;6213904;23;20385;-61
2023/07/19 01:14:07;;;;;;;5.07;3.47;;;;;;;;;;6213900;23;20013;-61
2023/07/19 01:16:34;;;;;;;5.32;3.65;;;;;;;;;;6187392;23;20412;-61
2023/07/19 01:19:00;;;;;;;6.40;3.30;;;;;;;;;;6214357;23;20016;-61
2023/07/19 01:21:26;;;;;;;3.95;3.55;;;;;;;;;;6213901;23;20063;-61
2023/07/19 01:23:52;;;;;;;5.75;3.80;;;;;;;;;;6213822;23;20044;-61
2023/07/19 01:26:18;;;;;;;6.38;3.78;;;;;;;;;;6214072;23;20039;-61
2023/07/19 01:28:44;;;;;;;5.82;3.55;;;;;;;;;;6213684;23;20675;-61
2023/07/19 01:31:17;;;;;;;8.73;4.10;;;;;;;;;;6213527;23;20016;-61
2023/07/19 01:33:43;;;;;;;5.47;3.95;;;;;;;;;;6213782;23;20040;-61
2023/07/19 01:36:09;;;;;;;8.30;3.85;;;;;;;;;;6213196;23;20800;-61
2023/07/19 01:38:36;;;;;;;5.40;3.58;;;;;;;;;;6213939;23;20091;-61
2023/07/19 01:41:02;;;;;;;5.10;3.60;;;;;;;;;;6214076;23;20036;-61
2023/07/19 01:43:29;;;;;;;8.15;3.67;;;;;;;;;;6213422;23;20082;-61
2023/07/19 01:45:55;;;;;;;5.88;3.55;;;;;;;;;;6213996;23;20044;-61
2023/07/19 01:48:21;;;;;;;5.97;3.63;;;;;;;;;;6213840;23;20012;-61
2023/07/19 01:50:47;;;;;;;11.27;4.45;;;;;;;;;;6213481;23;20056;-61
2023/07/19 01:53:13;;;;;;;8.07;3.97;;;;;;;;;;6213810;23;20019;-61
2023/07/19 01:55:40;;;;;;;7.80;3.70;;;;;;;;;;6214073;23;20447;-61
2023/07/19 01:58:06;;;;;;;6.47;4.10;;;;;;;;;;6213420;23;20771;-61
2023/07/19 02:00:32;;;;;;;5.65;3.53;;;;;;;;;;6213919;23;20048;-61
2023/07/19 02:02:58;;;;;;;6.90;3.50;;;;;;;;;;6213881;23;20012;-61
2023/07/19 02:05:24;;;;;;;6.97;3.58;;;;;;;;;;6213301;23;20022;-61
2023/07/19 02:07:50;;;;;;;8.35;3.45;;;;;;;;;;6213843;23;20052;-61
2023/07/19 02:10:16;;;;;;;5.25;3.38;;;;;;;;;;6213563;23;20036;-61
2023/07/19 02:12:42;;;;;;;7.13;4.03;;;;;;;;;;6212854;23;20016;-61
2023/07/19 02:15:08;;;;;;;7.07;3.47;;;;;;;;;;6213907;23;20013;-61
2023/07/19 02:17:34;;;;;;;8.18;3.63;;;;;;;;;;6213449;23;20058;-61
2023/07/19 02:20:00;;;;;;;7.13;3.85;;;;;;;;;;6213007;23;20086;-61
2023/07/19 02:22:26;;;;;;;5.82;3.90;;;;;;;;;;6213190;23;20091;-61
2023/07/19 02:24:53;;;;;;;6.15;3.80;;;;;;;;;;6213426;23;20096;-61
2023/07/19 02:27:19;;;;;;;5.47;3.80;;;;;;;;;;6213150;23;20443;-61
2023/07/19 02:29:45;;;;;;;7.78;4.30;;;;;;;;;;6213657;23;20051;-61
2023/07/19 02:32:11;;;;;;;7.47;3.80;;;;;;;;;;6213338;23;20013;-61
2023/07/19 02:34:37;;;;;;;6.68;3.83;;;;;;;;;;6212917;23;20071;-61
2023/07/19 02:37:03;;;;;;;8.85;4.10;;;;;;;;;;6213102;23;20459;-61
2023/07/19 02:39:30;;;;;;;6.95;4.45;;;;;;;;;;6213657;23;20012;-61
2023/07/19 02:41:57;;;;;;;7.20;3.95;;;;;;;;;;6213163;23;20020;-61
2023/07/19 02:44:23;;;;;;;9.70;4.90;;;;;;;;;;6213148;23;20016;-61
2023/07/19 02:46:49;;;;;;;7.80;4.80;;;;;;;;;;6213617;23;20087;-61
2023/07/19 02:49:15;;;;;;;7.22;4.55;;;;;;;;;;6213052;23;20012;-61
2023/07/19 02:51:42;;;;;;;8.85;5.18;;;;;;;;;;6213228;23;20017;-61
2023/07/19 02:54:08;;;;;;;7.43;5.30;;;;;;;;;;6213253;23;20024;-61
2023/07/19 02:56:34;;;;;;;11.13;6.57;;;;;;;;;;6212632;23;20125;-61
2023/07/19 02:59:00;;;;;;;8.88;5.20;;;;;;;;;;6213326;23;20012;-61
2023/07/19 03:01:27;;;;;;;8.52;5.78;;;;;;;;;;6213263;23;20500;-61
2023/07/19 03:03:53;;;;;;;6.75;5.05;;;;;;;;;;6212797;23;20020;-61
2023/07/19 03:06:19;;;;;;;7.47;5.40;;;;;;;;;;6213341;23;20016;-61
2023/07/19 03:08:45;;;;;;;11.15;5.80;;;;;;;;;;6213038;23;20013;-61
2023/07/19 03:11:12;;;;;;;11.07;6.40;;;;;;;;;;6212819;23;20017;-61
2023/07/19 03:13:38;;;;;;;10.35;5.82;;;;;;;;;;6212910;23;20056;-61
2023/07/19 03:16:05;;;;;;;7.82;6.03;;;;;;;;;;6213198;23;20067;-61
2023/07/19 03:18:31;;;;;;;7.43;5.65;;;;;;;;;;6212737;23;20013;-61
2023/07/19 03:20:57;;;;;;;8.88;6.05;;;;;;;;;;6213165;23;20436;-61
2023/07/19 03:23:24;;;;;;;8.20;5.65;;;;;;;;;;6212973;23;20043;-61
2023/07/19 03:25:50;;;;;;;8.90;6.15;;;;;;;;;;6212626;23;20020;-61
2023/07/19 03:28:16;;;;;;;8.93;6.70;;;;;;;;;;6213282;23;20058;-61
2023/07/19 03:30:42;;;;;;;8.00;5.28;;;;;;;;;;6213187;23;20020;-61
2023/07/19 03:33:08;;;;;;;11.70;6.07;;;;;;;;;;6212463;23;20437;-61
2023/07/19 03:35:34;;;;;;;10.48;6.45;;;;;;;;;;6212346;23;20016;-61
2023/07/19 03:38:00;;;;;;;9.13;6.30;;;;;;;;;;6213082;23;20024;-61
2023/07/19 03:40:26;;;;;;;11.63;6.88;;;;;;;;;;6212666;23;20012;-61
2023/07/19 03:42:52;;;;;;;9.65;6.60;;;;;;;;;;6212924;23;20447;-61
2023/07/19 03:45:18;;;;;;;9.77;6.55;;;;;;;;;;6213044;23;20024;-61
2023/07/19 03:47:44;;;;;;;10.13;6.22;;;;;;;;;;6212771;23;20019;-61
2023/07/19 03:50:10;;;;;;;9.48;6.60;;;;;;;;;;6212673;23;20020;-61
2023/07/19 03:52:36;;;;;;;8.65;6.00;;;;;;;;;;6212809;23;20025;-61
2023/07/19 03:55:03;;;;;;;10.10;6.63;;;;;;;;;;6212653;23;20024;-61
2023/07/19 03:57:29;;;;;;;9.00;6.38;;;;;;;;;;6212490;23;20012;-61
2023/07/19 03:59:55;;;;;;;11.32;6.25;;;;;;;;;;6212888;23;20016;-61
2023/07/19 04:02:22;;;;;;;8.20;6.22;;;;;;;;;;6212651;23;20499;-63
2023/07/19 04:04:49;;;;;;;11.55;6.18;;;;;;;;;;6212147;23;20091;-63
2023/07/19 04:07:15;;;;;;;9.60;6.30;;;;;;;;;;6212593;23;20095;-63
2023/07/19 04:09:41;;;;;;;10.90;5.88;;;;;;;;;;6212875;23;20016;-63
2023/07/19 04:12:07;;;;;;;8.63;6.70;;;;;;;;;;6212292;23;20515;-64
2023/07/19 04:14:33;;;;;;;12.32;6.50;;;;;;;;;;6212716;23;20051;-64
2023/07/19 04:16:59;;;;;;;12.30;6.68;;;;;;;;;;6212852;23;20016;-63
2023/07/19 04:19:25;;;;;;;8.98;5.72;;;;;;;;;;6211892;23;20139;-63
2023/07/19 04:21:51;;;;;;;10.13;7.15;;;;;;;;;;6212692;23;20020;-63
2023/07/19 04:24:17;;;;;;;10.82;6.40;;;;;;;;;;6212312;23;20019;-63
2023/07/19 04:26:43;;;;;;;11.35;6.95;;;;;;;;;;6212053;23;20057;-63
2023/07/19 04:29:10;;;;;;;9.02;5.88;;;;;;;;;;6212827;23;20062;-63
2023/07/19 04:31:36;;;;;;;9.80;6.57;;;;;;;;;;6212306;23;20013;-63
2023/07/19 04:34:02;;;;;;;9.50;6.60;;;;;;;;;;6211748;23;20470;-63
2023/07/19 04:36:28;;;;;;;13.07;6.57;;;;;;;;;;6211958;23;20016;-63
2023/07/19 04:38:54;;;;;;;11.05;7.20;;;;;;;;;;6212101;23;20087;-63
2023/07/19 04:41:20;;;;;;;14.25;7.40;;;;;;;;;;6212054;23;20016;-63
2023/07/19 04:43:46;;;;;;;11.13;6.75;;;;;;;;;;6211982;23;20019;-63
2023/07/19 04:46:12;;;;;;;13.32;7.10;;;;;;;;;;6214039;23;20063;-63
2023/07/19 04:48:39;;;;;;;9.80;6.43;;;;;;;;;;6214099;23;20098;-63
2023/07/19 04:51:06;;;;;;;8.98;6.82;;;;;;;;;;6214573;23;20343;-62
2023/07/19 04:53:32;;;;;;;15.68;7.13;;;;;;;;;;6214372;23;20339;-61
2023/07/19 04:55:58;;;;;;;10.63;6.95;;;;;;;;;;6214012;23;20013;-61
2023/07/19 04:58:24;;;;;;;10.20;6.50;;;;;;;;;;6214602;23;20012;-61
2023/07/19 05:00:50;;;;;;;10.38;6.75;;;;;;;;;;6214487;23;20016;-61
2023/07/19 05:03:16;;;;;;;10.55;6.40;;;;;;;;;;6213506;23;20025;-61
2023/07/19 05:05:42;;;;;;;14.70;6.57;;;;;;;;;;6214246;23;20091;-61
2023/07/19 05:08:08;;;;;;;8.65;5.97;;;;;;;;;;6214314;23;20017;-61
2023/07/19 05:10:38;;;;;;;13.32;6.05;;;;;;;;;;6213789;23;20013;-61
2023/07/19 05:13:04;;;;;;;8.43;5.90;;;;;;;;;;6214315;23;20096;-61
2023/07/19 05:15:31;;;;;;;11.40;6.25;;;;;;;;;;6214633;23;20024;-61
2023/07/19 05:17:57;;;;;;;10.23;6.10;;;;;;;;;;6213906;23;20051;-61
2023/07/19 05:20:24;;;;;;;9.95;6.00;;;;;;;;;;6214019;23;20013;-61
2023/07/19 05:22:50;;;;;;;9.90;5.50;;;;;;;;;;6214282;23;20115;-61
2023/07/19 05:25:16;;;;;;;12.95;5.88;;;;;;;;;;6213707;23;20021;-61
2023/07/19 05:27:43;;;;;;;8.82;5.50;;;;;;;;;;6213993;23;20012;-61
2023/07/19 05:30:09;;;;;;;10.98;5.93;;;;;;;;;;6214203;23;20332;-61
2023/07/19 05:32:35;;;;;;;12.77;5.70;;;;;;;;;;6213562;23;20028;-61
2023/07/19 05:35:01;;;;;;;7.95;5.60;;;;;;;;;;6213509;23;20031;-61
2023/07/19 05:37:27;;;;;;;7.03;4.43;;;;;;;;;;6214082;23;20024;-61
2023/07/19 05:39:54;;;;;;;8.52;5.47;;;;;;;;;;6213534;23;20008;-61
2023/07/19 05:42:20;;;;;;;8.70;5.72;;;;;;;;;;6214091;23;20776;-61
2023/07/19 05:44:46;;;;;;;8.25;4.75;;;;;;;;;;6213861;23;20336;-61
2023/07/19 05:47:12;;;;;;;9.38;5.40;;;;;;;;;;6213400;23;20013;-61
2023/07/19 05:49:38;;;;;;;13.82;5.68;;;;;;;;;;6214197;23;20339;-61
2023/07/19 05:52:04;;;;;;;8.52;5.32;;;;;;;;;;6213732;23;20031;-61
2023/07/19 05:54:30;;;;;;;9.57;5.32;;;;;;;;;;6213408;23;20023;-61
2023/07/19 05:56:56;;;;;;;6.40;4.82;;;;;;;;;;6213884;23;20009;-61
2023/07/19 05:59:22;;;;;;;8.73;5.05;;;;;;;;;;6213786;23;20313;-61
2023/07/19 06:01:48;;;;;;;7.93;5.07;;;;;;;;;;6213309;23;20008;-61
2023/07/19 06:04:14;;;;;;;7.68;5.30;;;;;;;;;;6213821;23;20016;-61
2023/07/19 06:06:40;;;;;;;10.77;5.75;;;;;;;;;;6213610;23;20016;-61
2023/07/19 06:09:08;;;;;;;9.63;5.65;;;;;;;;;;6213616;23;20016;-61
2023/07/19 06:11:34;;;;;;;7.00;5.03;;;;;;;;;;6213591;23;20012;-61
2023/07/19 06:14:01;;;;;;;8.80;5.25;;;;;;;;;;6213779;23;20013;-61
2023/07/19 06:16:27;;;;;;;10.75;5.75;;;;;;;;;;6213378;23;20017;-61
2023/07/19 06:18:53;;;;;;;7.93;5.15;;;;;;;;;;6213657;23;20035;-61
2023/07/19 06:21:19;;;;;;;8.48;5.30;;;;;;;;;;6213799;23;20096;-61
2023/07/19 06:23:45;;;;;;;6.78;4.93;;;;;;;;;;6213250;23;20356;-61
2023/07/19 06:26:11;;;;;;;7.25;4.78;;;;;;;;;;6213691;23;20016;-61
2023/07/19 06:28:37;;;;;;;10.52;5.35;;;;;;;;;;6213381;23;20025;-61
2023/07/19 06:31:03;;;;;;;11.57;4.60;;;;;;;;;;6213315;23;20020;-61
2023/07/19 06:33:29;;;;;;;7.90;4.70;;;;;;;;;;6213376;23;20016;-61
2023/07/19 06:35:56;;;;;;;6.43;4.25;;;;;;;;;;6213145;23;20017;-61
2023/07/19 06:38:23;;;;;;;6.95;4.03;;;;;;;;;;6212798;23;20009;-61
2023/07/19 06:40:49;;;;;;;8.55;4.75;;;;;;;;;;6212892;23;20013;-61
2023/07/19 06:43:15;;;;;;;6.00;4.60;;;;;;;;;;6213435;23;20020;-61
2023/07/19 06:45:41;;;;;;;7.85;4.25;;;;;;;;;;6212688;23;20436;-61
2023/07/19 06:48:07;;;;;;;7.35;4.47;;;;;;;;;;6213507;23;20062;-61
2023/07/19 06:50:33;;;;;;;9.73;4.10;;;;;;;;;;6213442;23;20432;-61
2023/07/19 06:53:02;;;;;;;7.03;4.20;;;;;;;;;;6212707;23;20085;-61
2023/07/19 06:55:28;;;;;;;6.68;4.10;;;;;;;;;;6186386;23;20017;-61
2023/07/19 06:57:54;;;;;;;5.38;3.55;;;;;;;;;;6213015;23;20294;-61
2023/07/19 07:00:20;;;;;;;7.88;3.85;;;;;;;;;;6213102;23;20063;-61
2023/07/19 07:02:46;;;;;;;5.90;3.25;;;;;;;;;;6212674;23;20460;-61
2023/07/19 07:05:12;;;;;;;4.75;3.10;;;;;;;;;;6213342;23;20494;-61
2023/07/19 07:07:42;;;;;;;5.10;2.90;;;;;;;;;;6212404;23;20340;-61
2023/07/19 07:10:09;;;;;;;4.75;2.90;;;;;;;;;;6213481;23;20020;-61
2023/07/19 07:12:36;;;;;;;4.57;2.78;;;;;;;;;;6213138;23;20013;-61
2023/07/19 07:15:02;;;;;;;8.38;3.05;;;;;;;;;;6212677;23;20008;-61
2023/07/19 07:17:28;;;;;;;5.88;2.90;;;;;;;;;;6213193;23;20035;-61
2023/07/19 07:19:54;;;;;;;6.35;2.65;;;;;;;;;;6212596;23;20023;-61
2023/07/19 07:22:21;;;;;;;7.55;2.83;;;;;;;;;;6210960;23;20020;-61
2023/07/19 07:24:47;;;;;;;4.15;2.50;;;;;;;;;;6211437;23;20082;-61
2023/07/19 07:27:13;;;;;;;7.25;3.10;;;;;;;;;;6211198;23;20016;-61
2023/07/19 07:29:41;;;;;;;5.20;3.17;;;;;;;;;;6212053;23;20138;-61
2023/07/19 07:32:11;;;;;;;7.00;2.90;;;;;;;;;;6211427;23;20031;-61
2023/07/19 07:34:37;;;;;;;8.05;2.72;;;;;;;;;;6211601;23;20134;-61
2023/07/19 07:37:03;;;;;;;5.20;2.83;;;;;;;;;;6211427;23;20102;-61
2023/07/19 07:39:29;;;;;;;6.45;2.60;;;;;;;;;;6211834;23;20016;-61
2023/07/19 07:41:56;;;;;;;5.50;2.58;;;;;;;;;;6210680;23;20035;-61
2023/07/19 07:44:23;;;;;;;4.43;2.88;;;;;;;;;;6211656;23;20055;-61
2023/07/19 07:46:49;;;;;;;5.57;2.97;;;;;;;;;;6211709;23;20368;-61
2023/07/19 07:49:15;;;;;;;8.13;3.00;;;;;;;;;;6212207;23;20063;-61
2023/07/19 07:51:42;;;;;;;4.75;2.83;;;;;;;;;;6211754;23;20016;-62
2023/07/19 07:54:08;;;;;;;4.47;2.80;;;;;;;;;;6211112;23;20024;-62
2023/07/19 07:56:34;;;;;;;4.28;2.30;;;;;;;;;;6212175;23;20147;-61
2023/07/19 07:59:00;;;;;;;7.07;2.50;;;;;;;;;;6211774;23;20415;-61
2023/07/19 08:01:26;;;;;;;4.25;2.03;;;;;;;;;;6211223;23;20326;-61
2023/07/19 08:03:52;;;;;;;3.33;1.88;;;;;;;;;;6211871;23;20074;-61
2023/07/19 08:06:19;;;;;;;4.82;1.50;;;;;;;;;;6211840;23;20012;-61
2023/07/19 08:08:45;;;;;;;4.38;2.05;;;;;;;;;;6211373;23;20017;-61
2023/07/19 08:11:11;;;;;;;3.35;1.65;;;;;;;;;;6211807;23;20052;-61
2023/07/19 08:13:37;;;;;;;4.93;1.80;;;;;;;;;;6211458;23;20023;-61
2023/07/19 08:16:06;;;;;;;5.53;2.00;;;;;;;;;;6211382;23;20047;-61
2023/07/19 08:18:32;;;;;;;6.03;2.03;;;;;;;;;;6211402;23;20008;-61
2023/07/19 08:20:58;;;;;;;4.45;1.88;;;;;;;;;;6210885;23;20013;-61
2023/07/19 08:23:24;;;;;;;5.65;2.13;;;;;;;;;;6208682;23;20027;-63
2023/07/19 08:25:57;;;;;;;4.97;2.03;;;;;;;;;;6184442;23;20039;-63
2023/07/19 08:28:27;;;;;;;7.03;2.00;;;;;;;;;;6209787;23;20012;-62
2023/07/19 08:30:53;;;;;;;5.18;1.75;;;;;;;;;;6208964;23;20368;-61
2023/07/19 08:33:23;;;;;;;7.32;2.15;;;;;;;;;;6209365;23;20016;-61
2023/07/19 08:35:52;;;;;;;4.20;2.00;;;;;;;;;;6183693;23;20100;-61
2023/07/19 08:38:18;;;;;;;5.07;2.10;;;;;;;;;;6209340;23;20012;-61
2023/07/19 08:40:48;;;;;;;3.58;1.40;;;;;;;;;;6209337;23;20019;-62
2023/07/19 08:43:14;;;;;;;4.47;1.80;;;;;;;;;;6209922;23;20364;-62
2023/07/19 08:45:40;;;;;;;3.28;1.70;;;;;;;;;;6210220;23;20806;-63
2023/07/19 08:48:07;;;;;;;5.68;1.52;;;;;;;;;;6209611;23;20535;-64
2023/07/19 08:50:34;;;;;;;9.07;1.95;;;;;;;;;;6210116;23;20016;-63
2023/07/19 08:53:02;;;;;;;2.55;1.42;;;;;;;;;;6208887;23;20035;-62
2023/07/19 08:55:31;;;;;;;3.83;1.60;;;;;;;;;;6210261;23;20016;-62
2023/07/19 08:57:57;;;;;;;5.22;1.85;;;;;;;;;;6209473;23;20083;-63
2023/07/19 09:00:27;;;;;;;4.82;1.70;;;;;;;;;;6210262;23;20044;-62
2023/07/19 09:02:54;;;;;;;4.28;1.70;;;;;;;;;;6208983;23;20016;-64
2023/07/19 09:05:20;;;;;;;3.60;1.60;;;;;;;;;;6209138;23;20095;-64
2023/07/19 09:07:47;;;;;;;3.78;1.75;;;;;;;;;;6209406;23;20021;-62
2023/07/19 09:10:13;;;;;;;5.13;1.48;;;;;;;;;;6209910;23;20023;-63
2023/07/19 09:12:41;;;;;;;3.65;1.77;;;;;;;;;;6182822;23;20070;-63
2023/07/19 09:15:08;;;;;;;3.88;1.77;;;;;;;;;;6208861;23;20055;-64
2023/07/19 09:17:40;;;;;;;4.15;1.70;;;;;;;;;;6209971;23;20016;-62
2023/07/19 09:20:06;;;;;;;7.43;2.20;;;;;;;;;;6210452;23;20428;-63
2023/07/19 09:22:35;;;;;;;4.80;2.10;;;;;;;;;;6208967;23;20112;-62
2023/07/19 09:25:01;;;;;;;3.28;1.70;;;;;;;;;;6209958;23;20074;-61
2023/07/19 09:27:28;;;;;;;4.72;2.05;;;;;;;;;;6209867;23;20028;-62
2023/07/19 09:29:54;;;;;;;5.75;1.85;;;;;;;;;;6209100;23;20052;-61
2023/07/19 09:32:23;;;;;;;5.57;1.80;;;;;;;;;;6211331;23;20017;-62
2023/07/19 09:34:52;;;;;;;6.15;2.20;;;;;;;;;;6212154;23;20012;-63
2023/07/19 09:37:20;;;;;;;8.18;2.33;;;;;;;;;;6184543;23;20084;-63
2023/07/19 09:39:46;;;;;;;7.43;2.10;;;;;;;;;;6212421;23;20052;-63
2023/07/19 09:42:13;;;;;;;4.15;1.77;;;;;;;;;;6212136;23;20066;-64
2023/07/19 09:44:40;;;;;;;4.63;1.70;;;;;;;;;;6211393;23;20015;-63
2023/07/19 09:47:11;;;;;;;2.75;1.50;;;;;;;;;;6211662;23;20013;-63
2023/07/19 09:49:37;;;;;;;5.37;1.83;;;;;;;;;;6210776;23;20025;-63
2023/07/19 09:52:03;;;;;;;6.57;1.90;;;;;;;;;;6211137;23;20256;-66
2023/07/19 09:54:31;;;;;;;4.32;2.13;;;;;;;;;;6211533;23;20016;-67
2023/07/19 09:56:58;;;;;;;9.48;2.50;;;;;;;;;;6212240;23;20479;-66
2023/07/19 09:59:29;;;;;;;3.17;1.60;;;;;;;;;;6209550;23;20100;-63
2023/07/19 10:01:55;;;;;;;5.22;1.83;;;;;;;;;;6211195;23;20019;-64
2023/07/19 10:04:22;;;;;;;3.67;1.80;;;;;;;;;;6210726;23;20013;-63
2023/07/19 10:06:48;;;;;;;4.35;2.13;;;;;;;;;;6210621;23;20067;-62
2023/07/19 10:09:41;;;;;;;5.78;2.05;;;;;;;;;;6211245;23;20454;-63
2023/07/19 10:12:07;;;;;;;;;;;;;;;;;;6182616;23;20020;-63
2023/07/19 10:14:33;;;;;;;5.88;1.60;;;;;;;;;;6211649;23;19990;-62
2023/07/19 10:17:00;;;;;;;5.00;1.70;;;;;;;;;;6212802;23;20012;-63
2023/07/19 10:19:26;;;;;;;3.65;1.92;;;;;;;;;;6212818;23;20012;-62
2023/07/19 10:22:04;;;;;;;4.35;1.92;;;;;;;;;;6211770;23;20065;-63
2023/07/19 10:24:31;;;;;;;3.95;1.50;;;;;;;;;;6212344;23;20047;-62
2023/07/19 10:27:00;;;;;;;2.95;1.58;;;;;;;;;;6212545;23;20108;-62
2023/07/19 10:29:26;;;;;;;4.38;1.23;;;;;;;;;;6212242;23;20019;-63
2023/07/19 10:31:52;;;;;;;4.20;1.42;;;;;;;;;;6212569;23;20019;-62
2023/07/19 10:34:28;;;;;;;4.03;1.58;;;;;;;;;;6185406;23;20021;-63
2023/07/19 10:36:55;;;;;;;6.00;1.75;;;;;;;;;;6211427;23;20012;-62
2023/07/19 10:39:23;;;;;;;9.07;2.03;;;;;;;;;;6212279;23;20103;-62
2023/07/19 10:41:52;;;;;;;3.50;1.33;;;;;;;;;;6212127;23;20016;-63
2023/07/19 10:44:18;;;;;;;3.25;1.60;;;;;;;;;;6211523;23;20064;-63
2023/07/19 10:46:45;;;;;;;2.42;1.30;;;;;;;;;;6212096;23;20015;-62
2023/07/19 10:49:11;;;;;;;4.15;1.50;;;;;;;;;;6212459;23;20044;-62
2023/07/19 10:51:37;;;;;;;3.70;1.30;;;;;;;;;;6209355;23;20012;-62
2023/07/19 10:54:03;;;;;;;4.05;1.55;;;;;;;;;;6211830;23;20059;-62
2023/07/19 10:56:29;;;;;;;2.22;1.60;;;;;;;;;;6212232;23;20432;-62
2023/07/19 10:59:01;;;;;;;4.80;1.70;;;;;;;;;;6211299;23;20360;-62
2023/07/19 11:01:29;;;;;;;;;;;;;;;;;;6213048;23;20016;-62
2023/07/19 11:03:55;;;;;;;4.57;1.90;;;;;;;;;;6212018;23;20287;-62
2023/07/19 11:06:21;;;;;;;2.92;1.80;;;;;;;;;;6211635;23;20019;-62
2023/07/19 11:08:47;;;;;;;4.30;2.03;;;;;;;;;;6212508;23;20024;-62
2023/07/19 11:11:14;;;;;;;5.75;2.10;;;;;;;;;;6212128;23;20013;-62
2023/07/19 11:13:40;;;;;;;5.20;2.05;;;;;;;;;;6211407;23;20501;-63
2023/07/19 11:16:06;;;;;;;4.88;2.65;;;;;;;;;;6212163;23;20009;-62
2023/07/19 11:18:36;;;;;;;3.78;2.13;;;;;;;;;;6211873;23;20016;-62
2023/07/19 11:21:03;;;;;;;3.05;2.35;;;;;;;;;;6211698;23;20016;-62
2023/07/19 11:23:30;;;;;;;4.82;2.63;;;;;;;;;;6211559;23;20012;-62
2023/07/19 11:26:06;;;;;;;6.28;2.60;;;;;;;;;;6208420;23;20023;-62
2023/07/19 11:28:36;;;;;;;6.38;2.58;;;;;;;;;;6211733;23;20335;-63
2023/07/19 11:31:05;;;;;;;5.32;2.50;;;;;;;;;;6185130;23;20530;-62
2023/07/19 11:33:34;;;;;;;5.18;2.75;;;;;;;;;;6211561;23;20021;-63
2023/07/19 11:36:00;;;;;;;6.55;2.65;;;;;;;;;;6211293;23;20450;-61
2023/07/19 11:38:26;;;;;;;6.45;2.75;;;;;;;;;;6210746;23;20027;-61
2023/07/19 11:40:52;;;;;;;4.22;2.63;;;;;;;;;;6210919;23;20502;-62
2023/07/19 11:43:24;;;;;;;5.22;2.88;;;;;;;;;;6210193;23;20017;-63
2023/07/19 11:45:50;;;;;;;4.20;2.92;;;;;;;;;;6211543;23;20016;-63
2023/07/19 11:48:16;;;;;;;5.13;2.85;;;;;;;;;;6211819;23;20023;-63
2023/07/19 11:50:42;;;;;;;4.97;2.78;;;;;;;;;;6211122;23;20016;-62
2023/07/19 11:53:08;;;;;;;6.53;3.10;;;;;;;;;;6211124;23;20017;-63
2023/07/19 11:55:35;;;;;;;5.32;3.17;;;;;;;;;;6210273;23;20066;-62
2023/07/19 11:58:04;;;;;;;5.22;3.10;;;;;;;;;;6210655;23;20016;-64
2023/07/19 12:00:31;;;;;;;6.45;3.42;;;;;;;;;;6209104;23;20031;-64
2023/07/19 12:02:57;;;;;;;4.50;3.70;;;;;;;;;;6209128;23;20585;-61
2023/07/19 12:05:24;;;;;;;5.18;3.30;;;;;;;;;;6210294;23;20420;-63
2023/07/19 12:07:51;;;;;;;7.97;4.20;;;;;;;;;;6211158;23;20297;-61
2023/07/19 12:10:18;;;;;;;6.32;2.92;;;;;;;;;;6210872;23;20024;-61
2023/07/19 12:12:44;;;;;;;7.35;3.60;;;;;;;;;;6209349;23;20020;-62
2023/07/19 12:15:11;;;;;;;4.47;3.15;;;;;;;;;;6210510;23;20355;-64
2023/07/19 12:17:38;;;;;;;4.28;3.63;;;;;;;;;;6211314;23;20016;-63
2023/07/19 12:20:06;;;;;;;9.23;3.22;;;;;;;;;;6210612;23;20047;-63
2023/07/19 12:22:35;;;;;;;7.65;3.08;;;;;;;;;;6211217;23;20332;-63
2023/07/19 12:25:01;;;;;;;7.10;3.00;;;;;;;;;;6210957;23;20016;-64
2023/07/19 12:27:27;;;;;;;5.95;2.70;;;;;;;;;;6209887;23;20031;-63
2023/07/19 12:29:53;;;;;;;5.47;2.58;;;;;;;;;;6211168;23;20013;-62
2023/07/19 12:32:19;;;;;;;5.93;2.60;;;;;;;;;;6209830;23;20013;-62
2023/07/19 12:34:46;;;;;;;6.00;2.13;;;;;;;;;;6209266;23;20088;-63
2023/07/19 12:37:12;;;;;;;5.55;2.00;;;;;;;;;;6209352;23;20040;-62
2023/07/19 12:39:39;;;;;;;4.38;2.55;;;;;;;;;;6209969;23;20017;-65
2023/07/19 12:42:06;;;;;;;4.20;2.28;;;;;;;;;;6209752;23;20012;-63
2023/07/19 12:44:33;;;;;;;6.88;2.70;;;;;;;;;;6210116;23;20017;-63
2023/07/19 12:46:59;;;;;;;6.20;3.30;;;;;;;;;;6210055;23;20020;-63
2023/07/19 12:49:25;;;;;;;6.53;3.47;;;;;;;;;;6210089;23;20285;-63
2023/07/19 12:51:51;;;;;;;5.35;3.35;;;;;;;;;;6209672;23;20146;-63
2023/07/19 12:54:18;;;;;;;5.18;3.10;;;;;;;;;;6211122;23;20459;-65
2023/07/19 12:56:44;;;;;;;4.75;2.55;;;;;;;;;;6209421;23;20016;-65
2023/07/19 12:59:10;;;;;;;5.13;2.60;;;;;;;;;;6209519;23;20016;-63
2023/07/19 13:01:39;;;;;;;4.28;2.90;;;;;;;;;;6210535;23;20815;-63
2023/07/19 13:04:06;;;;;;;5.40;2.90;;;;;;;;;;6210272;23;20023;-62
2023/07/19 13:06:33;;;;;;;7.32;3.13;;;;;;;;;;6210629;23;20040;-63
2023/07/19 13:08:59;;;;;;;8.32;3.33;;;;;;;;;;6212498;23;20048;-63
2023/07/19 13:11:25;;;;;;;8.63;3.78;;;;;;;;;;6211605;23;20514;-63
2023/07/19 13:13:53;;;;;;;5.85;2.83;;;;;;;;;;6212665;23;20013;-65
2023/07/19 13:16:19;;;;;;;4.05;2.80;;;;;;;;;;6212212;23;20478;-65
2023/07/19 13:18:45;;;;;;;5.53;3.38;;;;;;;;;;6211913;23;20087;-64
2023/07/19 13:21:13;;;;;;;5.00;2.88;;;;;;;;;;6184973;23;20075;-64
2023/07/19 13:23:39;;;;;;;5.10;3.42;;;;;;;;;;6211709;23;20020;-64
2023/07/19 13:26:06;;;;;;;2.88;2.58;;;;;;;;;;6211502;23;20016;-64
2023/07/19 13:28:32;;;;;;;4.10;2.20;;;;;;;;;;6211590;23;20021;-64
2023/07/19 13:31:00;;;;;;;3.63;2.10;;;;;;;;;;6212603;23;20017;-64
2023/07/19 13:33:26;;;;;;;3.83;2.50;;;;;;;;;;6211754;23;20016;-64
2023/07/19 13:35:52;;;;;;;4.53;2.50;;;;;;;;;;6211974;23;20493;-64
2023/07/19 13:38:19;;;;;;;7.70;2.97;;;;;;;;;;6212007;23;20013;-61
2023/07/19 13:40:45;;;;;;;4.70;2.50;;;;;;;;;;6211412;23;20013;-63
2023/07/19 13:43:12;;;;;;;5.57;2.80;;;;;;;;;;6211641;23;20561;-60
2023/07/19 13:45:40;;;;;;;5.50;3.60;;;;;;;;;;6211647;23;20367;-61
2023/07/19 13:48:08;;;;;;;4.35;2.40;;;;;;;;;;6212009;23;20436;-60
2023/07/19 13:50:34;;;;;;;5.25;2.60;;;;;;;;;;6185215;23;20025;-61
2023/07/19 13:53:00;;;;;;;4.38;2.70;;;;;;;;;;6211948;23;20498;-63
2023/07/19 13:55:26;;;;;;;3.72;1.95;;;;;;;;;;6210303;23;20110;-63
2023/07/19 13:57:52;;;;;;;5.28;2.35;;;;;;;;;;6185325;23;20339;-62
2023/07/19 14:00:18;;;;;;;5.68;2.78;;;;;;;;;;6211821;23;20086;-61
2023/07/19 14:02:45;;;;;;;3.95;2.30;;;;;;;;;;6212141;23;20111;-63
2023/07/19 14:05:12;;;;;;;4.50;2.42;;;;;;;;;;6212510;23;20016;-62
2023/07/19 14:07:38;;;;;;;4.93;2.47;;;;;;;;;;6213082;23;20020;-62
2023/07/19 14:10:05;;;;;;;4.63;2.33;;;;;;;;;;6213010;23;20017;-62
2023/07/19 14:12:31;;;;;;;5.63;3.17;;;;;;;;;;6213036;23;20478;-62
2023/07/19 14:14:57;;;;;;;5.68;2.33;;;;;;;;;;6213022;23;20012;-62
2023/07/19 14:17:26;;;;;;;4.13;2.97;;;;;;;;;;6211654;23;20447;-62
2023/07/19 14:19:52;;;;;;;6.00;2.85;;;;;;;;;;6185889;23;20016;-61
2023/07/19 14:22:19;;;;;;;5.15;2.78;;;;;;;;;;6213833;23;20087;-62
2023/07/19 14:24:45;;;;;;;5.40;2.70;;;;;;;;;;6186483;23;20472;-62
2023/07/19 14:27:12;;;;;;;6.57;2.80;;;;;;;;;;6213644;23;20429;-61
2023/07/19 14:29:40;;;;;;;6.25;3.00;;;;;;;;;;6213737;23;20335;-62
2023/07/19 14:32:06;;;;;;;3.58;3.00;;;;;;;;;;6212514;23;20020;-62
2023/07/19 14:34:32;;;;;;;7.45;3.22;;;;;;;;;;6213249;23;20012;-62
2023/07/19 14:36:58;;;;;;;6.55;3.22;;;;;;;;;;6213085;23;20017;-62
2023/07/19 14:39:26;;;;;;;6.13;3.20;;;;;;;;;;6212321;23;20043;-62